KMNI

Santee Cooper Regional Airport

Manning, South Carolina, USA
METAR KMNI 201615Z AUTO 20004KT 10SM BKN030 BKN035 28/21 A3008 RMK AO2
Observed Flight Rules
Aug-20 @ 16:15 UTC (9 minutes ago) Marginal Visual Flight Rules
Wind Visibility Clouds
200° at 4 knots 10 miles
  • Broken at 3,000' AGL
  • Broken at 3,500' AGL
Temperatures Readings
Current 28°C / 82°F
Dewpoint 21°C / 70°F
Humidity 66%
Altimeter 30.08" Hg
Pressure 1019 hPa
Elevation 32
METAR KMNI 201615Z AUTO 20004KT 10SM BKN030 BKN035 28/21 A3008 RMK AO2
Observed Flight Rules
Aug-20 @ 16:15 UTC
(9 minutes ago)
MVFR
Wind Visibility
200° at 4 knots 10 miles
Clouds
  • Broken at 3,000' AGL
  • Broken at 3,500' AGL
Temperature Dewpoint
28°C / 82°F 21°C / 70°F
Humidity Altimeter Pressure
66% 30.08" Hg 1019 hPa